sensor_id;sensor_type;location;lat;lon;timestamp;temperature;humidity
26505;DHT22;19493;48.042;7.584;2024-03-23T00:55:10;13.80;98.00
26505;DHT22;19493;48.042;7.584;2024-03-23T00:57:38;13.80;98.50
26505;DHT22;19493;48.042;7.584;2024-03-23T01:00:04;13.70;98.90
26505;DHT22;19493;48.042;7.584;2024-03-23T01:02:34;13.60;99.40
26505;DHT22;19493;48.042;7.584;2024-03-23T01:05:00;13.50;99.90
26505;DHT22;19493;48.042;7.584;2024-03-23T01:07:26;13.40;99.90
26505;DHT22;19493;48.042;7.584;2024-03-23T01:09:51;13.30;99.90
26505;DHT22;19493;48.042;7.584;2024-03-23T01:12:18;13.10;99.90
26505;DHT22;19493;48.042;7.584;2024-03-23T01:14:44;13.10;99.90
26505;DHT22;19493;48.042;7.584;2024-03-23T01:17:09;13.10;99.90
26505;DHT22;19493;48.042;7.584;2024-03-23T01:19:35;13.10;99.90
26505;DHT22;19493;48.042;7.584;2024-03-23T01:22:01;13.20;99.90
26505;DHT22;19493;48.042;7.584;2024-03-23T01:24:27;13.20;99.90
26505;DHT22;19493;48.042;7.584;2024-03-23T01:26:52;13.20;99.90
26505;DHT22;19493;48.042;7.584;2024-03-23T01:29:18;13.20;99.90
26505;DHT22;19493;48.042;7.584;2024-03-23T01:31:43;13.10;99.90
26505;DHT22;19493;48.042;7.584;2024-03-23T01:34:09;13.10;99.90
26505;DHT22;19493;48.042;7.584;2024-03-23T01:36:34;13.00;99.90
26505;DHT22;19493;48.042;7.584;2024-03-23T01:39:00;13.00;99.90
26505;DHT22;19493;48.042;7.584;2024-03-23T01:41:26;13.00;99.90
26505;DHT22;19493;48.042;7.584;2024-03-23T01:43:51;12.90;99.90
26505;DHT22;19493;48.042;7.584;2024-03-23T01:46:18;12.90;99.90
26505;DHT22;19493;48.042;7.584;2024-03-23T01:48:43;12.90;99.90
26505;DHT22;19493;48.042;7.584;2024-03-23T01:51:09;12.80;99.90
26505;DHT22;19493;48.042;7.584;2024-03-23T01:53:35;12.80;99.90
26505;DHT22;19493;48.042;7.584;2024-03-23T01:56:02;12.90;99.90
26505;DHT22;19493;48.042;7.584;2024-03-23T01:58:27;12.90;99.90
26505;DHT22;19493;48.042;7.584;2024-03-23T02:00:53;12.90;99.90
26505;DHT22;19493;48.042;7.584;2024-03-23T02:03:26;12.90;99.90
26505;DHT22;19493;48.042;7.584;2024-03-23T02:05:56;12.90;99.90
26505;DHT22;19493;48.042;7.584;2024-03-23T02:08:23;12.90;99.90
26505;DHT22;19493;48.042;7.584;2024-03-23T02:10:50;12.80;99.90
26505;DHT22;19493;48.042;7.584;2024-03-23T02:13:17;12.80;99.90
26505;DHT22;19493;48.042;7.584;2024-03-23T02:15:43;12.70;99.90
26505;DHT22;19493;48.042;7.584;2024-03-23T02:18:10;12.70;99.90
26505;DHT22;19493;48.042;7.584;2024-03-23T02:20:36;12.60;99.90
26505;DHT22;19493;48.042;7.584;2024-03-23T02:23:03;12.70;99.90
26505;DHT22;19493;48.042;7.584;2024-03-23T02:25:28;12.60;99.90
26505;DHT22;19493;48.042;7.584;2024-03-23T02:27:54;12.70;99.90
26505;DHT22;19493;48.042;7.584;2024-03-23T02:30:20;12.60;99.90
26505;DHT22;19493;48.042;7.584;2024-03-23T02:32:46;12.60;99.90
26505;DHT22;19493;48.042;7.584;2024-03-23T02:35:12;12.70;99.90
26505;DHT22;19493;48.042;7.584;2024-03-23T02:37:37;12.70;99.90
26505;DHT22;19493;48.042;7.584;2024-03-23T02:40:03;12.80;99.90
26505;DHT22;19493;48.042;7.584;2024-03-23T02:42:29;12.80;99.90
26505;DHT22;19493;48.042;7.584;2024-03-23T02:44:54;12.80;99.90
26505;DHT22;19493;48.042;7.584;2024-03-23T02:47:20;12.90;99.90
26505;DHT22;19493;48.042;7.584;2024-03-23T02:49:46;13.10;99.90
26505;DHT22;19493;48.042;7.584;2024-03-23T02:52:11;13.10;99.90
26505;DHT22;19493;48.042;7.584;2024-03-23T02:54:37;13.20;99.90
26505;DHT22;19493;48.042;7.584;2024-03-23T02:57:03;13.30;99.90
26505;DHT22;19493;48.042;7.584;2024-03-23T02:59:28;13.40;99.90
26505;DHT22;19493;48.042;7.584;2024-03-23T03:01:54;13.40;99.90
26505;DHT22;19493;48.042;7.584;2024-03-23T03:04:19;13.40;99.90
26505;DHT22;19493;48.042;7.584;2024-03-23T03:06:47;13.50;99.90
26505;DHT22;19493;48.042;7.584;2024-03-23T03:09:12;13.50;99.90
26505;DHT22;19493;48.042;7.584;2024-03-23T03:11:38;13.50;99.90
26505;DHT22;19493;48.042;7.584;2024-03-23T03:14:04;13.60;99.90
26505;DHT22;19493;48.042;7.584;2024-03-23T03:16:29;13.60;99.90
26505;DHT22;19493;48.042;7.584;2024-03-23T03:18:55;13.60;99.90
26505;DHT22;19493;48.042;7.584;2024-03-23T03:21:21;13.60;99.90
26505;DHT22;19493;48.042;7.584;2024-03-23T03:23:47;13.70;99.90
26505;DHT22;19493;48.042;7.584;2024-03-23T03:26:18;13.70;99.90
26505;DHT22;19493;48.042;7.584;2024-03-23T03:28:44;13.70;99.90
26505;DHT22;19493;48.042;7.584;2024-03-23T03:31:14;13.70;99.90
26505;DHT22;19493;48.042;7.584;2024-03-23T03:33:40;13.70;99.90
26505;DHT22;19493;48.042;7.584;2024-03-23T03:36:06;13.60;99.90
26505;DHT22;19493;48.042;7.584;2024-03-23T03:38:31;13.60;99.90
26505;DHT22;19493;48.042;7.584;2024-03-23T03:40:57;13.50;99.90
26505;DHT22;19493;48.042;7.584;2024-03-23T03:43:24;13.50;99.90
26505;DHT22;19493;48.042;7.584;2024-03-23T03:45:54;13.50;99.90
26505;DHT22;19493;48.042;7.584;2024-03-23T03:48:20;13.50;99.90
26505;DHT22;19493;48.042;7.584;2024-03-23T03:50:45;13.50;99.90
26505;DHT22;19493;48.042;7.584;2024-03-23T03:53:11;13.50;99.90
26505;DHT22;19493;48.042;7.584;2024-03-23T03:55:36;13.50;99.90
26505;DHT22;19493;48.042;7.584;2024-03-23T03:58:03;13.40;99.90
26505;DHT22;19493;48.042;7.584;2024-03-23T04:00:30;13.40;99.90
26505;DHT22;19493;48.042;7.584;2024-03-23T04:02:56;13.40;99.90
26505;DHT22;19493;48.042;7.584;2024-03-23T04:05:21;13.40;99.90
26505;DHT22;19493;48.042;7.584;2024-03-23T04:07:48;13.30;99.90
26505;DHT22;19493;48.042;7.584;2024-03-23T04:10:14;13.20;99.90
26505;DHT22;19493;48.042;7.584;2024-03-23T04:12:41;13.30;99.90
26505;DHT22;19493;48.042;7.584;2024-03-23T04:15:07;13.30;99.90
26505;DHT22;19493;48.042;7.584;2024-03-23T04:17:32;13.30;99.90
26505;DHT22;19493;48.042;7.584;2024-03-23T04:20:00;13.40;99.90
26505;DHT22;19493;48.042;7.584;2024-03-23T04:22:26;13.40;99.90
26505;DHT22;19493;48.042;7.584;2024-03-23T04:24:56;13.40;99.90
26505;DHT22;19493;48.042;7.584;2024-03-23T04:27:22;13.40;99.90
26505;DHT22;19493;48.042;7.584;2024-03-23T04:29:51;13.40;99.90
26505;DHT22;19493;48.042;7.584;2024-03-23T04:32:17;13.40;99.90
26505;DHT22;19493;48.042;7.584;2024-03-23T04:34:44;13.20;99.90
26505;DHT22;19493;48.042;7.584;2024-03-23T04:37:10;13.00;99.90
26505;DHT22;19493;48.042;7.584;2024-03-23T04:39:39;12.80;99.90
26505;DHT22;19493;48.042;7.584;2024-03-23T04:42:05;12.50;99.90
26505;DHT22;19493;48.042;7.584;2024-03-23T04:44:31;12.40;99.90
26505;DHT22;19493;48.042;7.584;2024-03-23T04:46:57;12.30;99.90
26505;DHT22;19493;48.042;7.584;2024-03-23T04:49:23;12.00;99.90
26505;DHT22;19493;48.042;7.584;2024-03-23T04:51:49;11.70;99.90
26505;DHT22;19493;48.042;7.584;2024-03-23T04:54:15;11.50;99.90
26505;DHT22;19493;48.042;7.584;2024-03-23T04:56:40;11.40;99.90
26505;DHT22;19493;48.042;7.584;2024-03-23T04:59:06;11.30;99.90
26505;DHT22;19493;48.042;7.584;2024-03-23T05:01:32;11.30;99.90
26505;DHT22;19493;48.042;7.584;2024-03-23T05:23:30;10.70;99.90
26505;DHT22;19493;48.042;7.584;2024-03-23T05:25:55;10.70;99.90
26505;DHT22;19493;48.042;7.584;2024-03-23T05:28:22;10.70;99.90
26505;DHT22;19493;48.042;7.584;2024-03-23T05:30:54;10.60;99.90
26505;DHT22;19493;48.042;7.584;2024-03-23T05:33:20;10.60;99.90
26505;DHT22;19493;48.042;7.584;2024-03-23T05:35:46;10.60;99.90
26505;DHT22;19493;48.042;7.584;2024-03-23T05:38:13;10.60;99.90
26505;DHT22;19493;48.042;7.584;2024-03-23T05:40:39;10.60;99.90
26505;DHT22;19493;48.042;7.584;2024-03-23T05:43:06;10.60;99.90
26505;DHT22;19493;48.042;7.584;2024-03-23T05:45:32;10.70;99.90
26505;DHT22;19493;48.042;7.584;2024-03-23T05:47:58;10.60;99.90
26505;DHT22;19493;48.042;7.584;2024-03-23T05:50:24;10.50;99.90
26505;DHT22;19493;48.042;7.584;2024-03-23T05:52:50;10.50;99.90
26505;DHT22;19493;48.042;7.584;2024-03-23T05:55:15;10.50;99.90
26505;DHT22;19493;48.042;7.584;2024-03-23T05:57:41;10.60;99.90
26505;DHT22;19493;48.042;7.584;2024-03-23T06:00:07;10.70;99.90
26505;DHT22;19493;48.042;7.584;2024-03-23T06:02:43;10.80;99.90
26505;DHT22;19493;48.042;7.584;2024-03-23T06:05:12;10.80;99.90
26505;DHT22;19493;48.042;7.584;2024-03-23T06:07:38;10.90;99.90
26505;DHT22;19493;48.042;7.584;2024-03-23T06:10:05;10.90;99.90
26505;DHT22;19493;48.042;7.584;2024-03-23T06:12:31;10.80;99.90
26505;DHT22;19493;48.042;7.584;2024-03-23T06:14:57;10.80;99.90
26505;DHT22;19493;48.042;7.584;2024-03-23T06:17:22;10.80;99.90
26505;DHT22;19493;48.042;7.584;2024-03-23T06:19:48;10.70;99.90
26505;DHT22;19493;48.042;7.584;2024-03-23T06:22:14;10.70;99.90
26505;DHT22;19493;48.042;7.584;2024-03-23T06:24:40;10.70;99.90
26505;DHT22;19493;48.042;7.584;2024-03-23T06:27:05;10.70;99.90
26505;DHT22;19493;48.042;7.584;2024-03-23T06:29:31;10.70;99.90
26505;DHT22;19493;48.042;7.584;2024-03-23T06:31:57;10.70;99.90
26505;DHT22;19493;48.042;7.584;2024-03-23T06:34:23;10.80;99.90
26505;DHT22;19493;48.042;7.584;2024-03-23T06:36:49;10.80;99.90
26505;DHT22;19493;48.042;7.584;2024-03-23T06:39:18;10.80;99.90
26505;DHT22;19493;48.042;7.584;2024-03-23T06:41:52;10.80;99.90
26505;DHT22;19493;48.042;7.584;2024-03-23T06:44:18;11.00;99.90
26505;DHT22;19493;48.042;7.584;2024-03-23T06:46:44;11.00;99.90
26505;DHT22;19493;48.042;7.584;2024-03-23T06:49:10;11.00;99.90
26505;DHT22;19493;48.042;7.584;2024-03-23T06:51:36;11.00;99.90
26505;DHT22;19493;48.042;7.584;2024-03-23T06:54:03;11.00;99.90
26505;DHT22;19493;48.042;7.584;2024-03-23T06:56:30;10.90;99.90
26505;DHT22;19493;48.042;7.584;2024-03-23T06:58:56;10.90;99.90
26505;DHT22;19493;48.042;7.584;2024-03-23T07:01:22;10.90;99.90
26505;DHT22;19493;48.042;7.584;2024-03-23T07:03:47;10.80;99.90
26505;DHT22;19493;48.042;7.584;2024-03-23T07:06:13;10.80;99.90
26505;DHT22;19493;48.042;7.584;2024-03-23T07:08:39;10.80;99.90
26505;DHT22;19493;48.042;7.584;2024-03-23T07:11:04;10.80;99.90
26505;DHT22;19493;48.042;7.584;2024-03-23T07:13:30;10.70;99.90
26505;DHT22;19493;48.042;7.584;2024-03-23T07:15:56;10.60;99.90
26505;DHT22;19493;48.042;7.584;2024-03-23T07:18:23;10.60;99.90
26505;DHT22;19493;48.042;7.584;2024-03-23T07:21:06;10.60;99.90
26505;DHT22;19493;48.042;7.584;2024-03-23T07:23:32;10.60;99.90
26505;DHT22;19493;48.042;7.584;2024-03-23T07:26:03;10.60;99.90
26505;DHT22;19493;48.042;7.584;2024-03-23T07:28:30;10.60;99.90
26505;DHT22;19493;48.042;7.584;2024-03-23T07:31:05;10.40;99.90
26505;DHT22;19493;48.042;7.584;2024-03-23T07:33:32;10.30;99.90
26505;DHT22;19493;48.042;7.584;2024-03-23T07:35:58;10.10;99.90
26505;DHT22;19493;48.042;7.584;2024-03-23T07:38:28;10.10;99.90
26505;DHT22;19493;48.042;7.584;2024-03-23T07:41:25;10.00;99.90
26505;DHT22;19493;48.042;7.584;2024-03-23T07:43:53;9.90;99.90
26505;DHT22;19493;48.042;7.584;2024-03-23T07:46:20;10.00;99.90
26505;DHT22;19493;48.042;7.584;2024-03-23T07:48:45;10.00;99.90
26505;DHT22;19493;48.042;7.584;2024-03-23T07:51:17;10.00;99.90
26505;DHT22;19493;48.042;7.584;2024-03-23T07:53:44;10.10;99.90
26505;DHT22;19493;48.042;7.584;2024-03-23T07:56:14;10.00;99.90
26505;DHT22;19493;48.042;7.584;2024-03-23T07:58:44;10.00;99.90
26505;DHT22;19493;48.042;7.584;2024-03-23T08:01:11;9.90;99.90
26505;DHT22;19493;48.042;7.584;2024-03-23T08:03:39;9.60;99.90
26505;DHT22;19493;48.042;7.584;2024-03-23T08:06:18;9.80;99.90
26505;DHT22;19493;48.042;7.584;2024-03-23T08:08:54;10.10;99.90
26505;DHT22;19493;48.042;7.584;2024-03-23T08:11:29;10.40;99.90
26505;DHT22;19493;48.042;7.584;2024-03-23T08:13:55;10.60;99.90
26505;DHT22;19493;48.042;7.584;2024-03-23T08:16:21;10.50;99.90
26505;DHT22;19493;48.042;7.584;2024-03-23T08:18:47;10.40;99.90
26505;DHT22;19493;48.042;7.584;2024-03-23T08:21:12;10.20;99.90
26505;DHT22;19493;48.042;7.584;2024-03-23T08:23:38;10.30;99.90
26505;DHT22;19493;48.042;7.584;2024-03-23T08:26:09;10.70;99.90
26505;DHT22;19493;48.042;7.584;2024-03-23T08:28:35;10.80;99.90
26505;DHT22;19493;48.042;7.584;2024-03-23T08:31:03;10.80;99.90
26505;DHT22;19493;48.042;7.584;2024-03-23T08:33:31;10.90;99.90
26505;DHT22;19493;48.042;7.584;2024-03-23T08:36:15;11.00;99.90
26505;DHT22;19493;48.042;7.584;2024-03-23T08:38:41;11.30;99.90
26505;DHT22;19493;48.042;7.584;2024-03-23T08:41:10;11.50;99.90
26505;DHT22;19493;48.042;7.584;2024-03-23T08:43:38;11.80;98.60
26505;DHT22;19493;48.042;7.584;2024-03-23T08:46:12;11.80;97.90
26505;DHT22;19493;48.042;7.584;2024-03-23T08:48:45;11.70;97.10
26505;DHT22;19493;48.042;7.584;2024-03-23T08:51:13;11.90;96.30
26505;DHT22;19493;48.042;7.584;2024-03-23T08:53:39;12.20;95.50
26505;DHT22;19493;48.042;7.584;2024-03-23T08:56:06;12.40;94.10
26505;DHT22;19493;48.042;7.584;2024-03-23T08:58:33;12.60;91.80
26505;DHT22;19493;48.042;7.584;2024-03-23T09:01:11;12.70;90.80
26505;DHT22;19493;48.042;7.584;2024-03-23T09:03:40;12.80;90.00
26505;DHT22;19493;48.042;7.584;2024-03-23T09:06:10;12.80;89.90
26505;DHT22;19493;48.042;7.584;2024-03-23T09:08:36;12.80;90.10
26505;DHT22;19493;48.042;7.584;2024-03-23T09:11:09;12.70;89.40
26505;DHT22;19493;48.042;7.584;2024-03-23T09:13:35;12.40;89.80
26505;DHT22;19493;48.042;7.584;2024-03-23T09:16:02;12.20;90.00
26505;DHT22;19493;48.042;7.584;2024-03-23T09:18:28;12.10;90.80
26505;DHT22;19493;48.042;7.584;2024-03-23T09:20:53;12.20;91.30
26505;DHT22;19493;48.042;7.584;2024-03-23T09:23:21;13.00;90.90
26505;DHT22;19493;48.042;7.584;2024-03-23T09:25:46;14.90;85.20
26505;DHT22;19493;48.042;7.584;2024-03-23T09:28:12;15.40;79.10
26505;DHT22;19493;48.042;7.584;2024-03-23T09:30:37;14.80;76.60
26505;DHT22;19493;48.042;7.584;2024-03-23T09:33:12;14.60;76.60
26505;DHT22;19493;48.042;7.584;2024-03-23T09:35:43;14.30;77.60
26505;DHT22;19493;48.042;7.584;2024-03-23T09:38:10;13.70;77.30
26505;DHT22;19493;48.042;7.584;2024-03-23T09:40:42;13.30;76.40
26505;DHT22;19493;48.042;7.584;2024-03-23T09:43:09;12.90;77.80
26505;DHT22;19493;48.042;7.584;2024-03-23T09:45:38;13.10;78.30
26505;DHT22;19493;48.042;7.584;2024-03-23T09:48:05;13.60;75.70
26505;DHT22;19493;48.042;7.584;2024-03-23T09:50:31;13.60;75.30
26505;DHT22;19493;48.042;7.584;2024-03-23T09:52:56;13.20;74.80
26505;DHT22;19493;48.042;7.584;2024-03-23T09:55:22;12.80;75.70
26505;DHT22;19493;48.042;7.584;2024-03-23T09:57:49;12.30;76.80
26505;DHT22;19493;48.042;7.584;2024-03-23T10:00:16;12.00;78.30
26505;DHT22;19493;48.042;7.584;2024-03-23T10:02:42;11.80;80.30
26505;DHT22;19493;48.042;7.584;2024-03-23T10:05:21;11.50;80.30
26505;DHT22;19493;48.042;7.584;2024-03-23T10:07:50;11.30;79.90
26505;DHT22;19493;48.042;7.584;2024-03-23T10:10:16;11.10;80.60
26505;DHT22;19493;48.042;7.584;2024-03-23T10:12:46;10.90;84.80
26505;DHT22;19493;48.042;7.584;2024-03-23T10:15:25;10.20;93.10
26505;DHT22;19493;48.042;7.584;2024-03-23T10:17:51;9.60;99.90
26505;DHT22;19493;48.042;7.584;2024-03-23T10:20:21;8.90;99.90
26505;DHT22;19493;48.042;7.584;2024-03-23T10:22:48;8.40;99.90
26505;DHT22;19493;48.042;7.584;2024-03-23T10:25:14;7.90;99.90
26505;DHT22;19493;48.042;7.584;2024-03-23T10:27:40;7.70;99.90
26505;DHT22;19493;48.042;7.584;2024-03-23T10:32:35;7.40;99.90
26505;DHT22;19493;48.042;7.584;2024-03-23T10:35:17;7.30;99.90
26505;DHT22;19493;48.042;7.584;2024-03-23T10:37:47;7.40;99.90
26505;DHT22;19493;48.042;7.584;2024-03-23T10:40:15;7.70;99.90
26505;DHT22;19493;48.042;7.584;2024-03-23T10:42:41;8.20;99.90
26505;DHT22;19493;48.042;7.584;2024-03-23T10:45:07;8.80;99.90
26505;DHT22;19493;48.042;7.584;2024-03-23T10:47:35;9.60;99.90
26505;DHT22;19493;48.042;7.584;2024-03-23T10:50:01;11.00;99.90
26505;DHT22;19493;48.042;7.584;2024-03-23T10:52:27;14.90;99.90
26505;DHT22;19493;48.042;7.584;2024-03-23T10:54:53;18.00;98.90
26505;DHT22;19493;48.042;7.584;2024-03-23T10:57:21;19.70;78.20
26505;DHT22;19493;48.042;7.584;2024-03-23T10:59:48;18.70;73.80
26505;DHT22;19493;48.042;7.584;2024-03-23T11:02:21;17.50;70.90
26505;DHT22;19493;48.042;7.584;2024-03-23T11:04:47;16.90;70.90
26505;DHT22;19493;48.042;7.584;2024-03-23T11:07:32;16.70;70.80
26505;DHT22;19493;48.042;7.584;2024-03-23T11:12:29;17.90;61.60
26505;DHT22;19493;48.042;7.584;2024-03-23T11:15:11;17.50;61.20
26505;DHT22;19493;48.042;7.584;2024-03-23T11:17:37;18.40;61.60
26505;DHT22;19493;48.042;7.584;2024-03-23T11:20:05;19.60;55.70
26505;DHT22;19493;48.042;7.584;2024-03-23T11:22:46;20.20;52.90
26505;DHT22;19493;48.042;7.584;2024-03-23T11:25:21;21.20;52.00
26505;DHT22;19493;48.042;7.584;2024-03-23T11:27:48;21.70;49.90
26505;DHT22;19493;48.042;7.584;2024-03-23T11:30:24;23.10;49.40
26505;DHT22;19493;48.042;7.584;2024-03-23T11:32:55;22.80;46.80
26505;DHT22;19493;48.042;7.584;2024-03-23T11:40:34;18.40;47.50
26505;DHT22;19493;48.042;7.584;2024-03-23T11:43:01;16.70;53.50
26505;DHT22;19493;48.042;7.584;2024-03-23T11:45:28;15.80;55.30
26505;DHT22;19493;48.042;7.584;2024-03-23T11:50:37;14.60;60.60
26505;DHT22;19493;48.042;7.584;2024-03-23T11:58:13;15.70;57.50
26505;DHT22;19493;48.042;7.584;2024-03-23T12:00:39;15.50;58.50
26505;DHT22;19493;48.042;7.584;2024-03-23T12:03:05;16.00;58.20
26505;DHT22;19493;48.042;7.584;2024-03-23T12:05:32;19.00;55.10
26505;DHT22;19493;48.042;7.584;2024-03-23T12:08:24;21.20;50.40
26505;DHT22;19493;48.042;7.584;2024-03-23T12:11:13;23.00;47.40
26505;DHT22;19493;48.042;7.584;2024-03-23T12:13:41;24.00;42.00
26505;DHT22;19493;48.042;7.584;2024-03-23T12:18:44;19.10;45.40
26505;DHT22;19493;48.042;7.584;2024-03-23T12:21:10;17.30;49.50
26505;DHT22;19493;48.042;7.584;2024-03-23T12:23:36;16.00;52.00
26505;DHT22;19493;48.042;7.584;2024-03-23T12:26:03;16.20;53.20
26505;DHT22;19493;48.042;7.584;2024-03-23T12:28:29;15.30;55.00
26505;DHT22;19493;48.042;7.584;2024-03-23T12:30:55;14.30;56.20
26505;DHT22;19493;48.042;7.584;2024-03-23T12:33:21;13.90;57.10
26505;DHT22;19493;48.042;7.584;2024-03-23T12:35:50;13.60;58.00
26505;DHT22;19493;48.042;7.584;2024-03-23T12:38:16;13.20;58.40
26505;DHT22;19493;48.042;7.584;2024-03-23T12:40:45;13.00;59.90
26505;DHT22;19493;48.042;7.584;2024-03-23T12:43:12;13.00;60.00
26505;DHT22;19493;48.042;7.584;2024-03-23T12:45:38;13.20;60.30
26505;DHT22;19493;48.042;7.584;2024-03-23T12:48:04;13.10;59.40
26505;DHT22;19493;48.042;7.584;2024-03-23T12:50:29;13.00;60.50
26505;DHT22;19493;48.042;7.584;2024-03-23T12:52:55;14.00;60.00
26505;DHT22;19493;48.042;7.584;2024-03-23T12:55:20;15.70;56.70
26505;DHT22;19493;48.042;7.584;2024-03-23T12:57:47;19.70;51.10
26505;DHT22;19493;48.042;7.584;2024-03-23T13:00:13;22.60;46.10
26505;DHT22;19493;48.042;7.584;2024-03-23T13:02:39;24.90;38.10
26505;DHT22;19493;48.042;7.584;2024-03-23T13:05:05;26.00;36.20
26505;DHT22;19493;48.042;7.584;2024-03-23T13:07:31;25.80;35.50
26505;DHT22;19493;48.042;7.584;2024-03-23T13:09:56;25.00;33.30
26505;DHT22;19493;48.042;7.584;2024-03-23T13:12:22;24.60;34.50
26505;DHT22;19493;48.042;7.584;2024-03-23T13:14:48;24.60;36.00
26505;DHT22;19493;48.042;7.584;2024-03-23T13:17:14;25.40;35.40
26505;DHT22;19493;48.042;7.584;2024-03-23T13:19:40;25.50;34.70
26505;DHT22;19493;48.042;7.584;2024-03-23T13:22:06;25.60;34.90
26505;DHT22;19493;48.042;7.584;2024-03-23T13:24:31;24.10;35.30
26505;DHT22;19493;48.042;7.584;2024-03-23T13:26:57;21.00;40.10
26505;DHT22;19493;48.042;7.584;2024-03-23T13:29:24;22.60;41.20
26505;DHT22;19493;48.042;7.584;2024-03-23T13:31:51;24.70;38.20
26505;DHT22;19493;48.042;7.584;2024-03-23T13:34:17;25.80;35.30
26505;DHT22;19493;48.042;7.584;2024-03-23T13:36:46;24.20;34.80
26505;DHT22;19493;48.042;7.584;2024-03-23T13:39:13;23.50;37.00
26505;DHT22;19493;48.042;7.584;2024-03-23T13:41:40;21.70;39.30
26505;DHT22;19493;48.042;7.584;2024-03-23T13:44:12;23.30;37.70
26505;DHT22;19493;48.042;7.584;2024-03-23T13:46:40;24.30;35.50
26505;DHT22;19493;48.042;7.584;2024-03-23T13:49:06;21.10;37.20
26505;DHT22;19493;48.042;7.584;2024-03-23T13:51:32;18.70;41.10
26505;DHT22;19493;48.042;7.584;2024-03-23T13:53:58;17.20;43.30
26505;DHT22;19493;48.042;7.584;2024-03-23T13:56:29;18.00;43.30
26505;DHT22;19493;48.042;7.584;2024-03-23T13:58:56;19.90;41.60
26505;DHT22;19493;48.042;7.584;2024-03-23T14:01:22;23.50;37.40
26505;DHT22;19493;48.042;7.584;2024-03-23T14:03:48;24.80;33.40
26505;DHT22;19493;48.042;7.584;2024-03-23T14:06:14;25.00;30.20
26505;DHT22;19493;48.042;7.584;2024-03-23T14:08:40;22.00;31.50
26505;DHT22;19493;48.042;7.584;2024-03-23T14:11:09;19.30;35.80
26505;DHT22;19493;48.042;7.584;2024-03-23T14:13:35;17.60;40.40
26505;DHT22;19493;48.042;7.584;2024-03-23T14:16:01;16.20;42.30
26505;DHT22;19493;48.042;7.584;2024-03-23T14:18:27;15.10;44.40
26505;DHT22;19493;48.042;7.584;2024-03-23T14:20:56;14.30;47.00
26505;DHT22;19493;48.042;7.584;2024-03-23T14:23:24;13.70;48.20
26505;DHT22;19493;48.042;7.584;2024-03-23T14:25:55;13.30;50.80
26505;DHT22;19493;48.042;7.584;2024-03-23T14:28:24;12.70;56.60
26505;DHT22;19493;48.042;7.584;2024-03-23T14:30:51;12.30;59.40
26505;DHT22;19493;48.042;7.584;2024-03-23T14:33:17;11.90;62.10
26505;DHT22;19493;48.042;7.584;2024-03-23T14:35:55;11.70;62.70
26505;DHT22;19493;48.042;7.584;2024-03-23T14:38:22;11.90;63.40
26505;DHT22;19493;48.042;7.584;2024-03-23T14:40:47;12.00;65.70
26505;DHT22;19493;48.042;7.584;2024-03-23T14:43:13;11.70;66.60
26505;DHT22;19493;48.042;7.584;2024-03-23T14:46:13;11.50;68.60
26505;DHT22;19493;48.042;7.584;2024-03-23T14:48:40;11.40;68.90
26505;DHT22;19493;48.042;7.584;2024-03-23T14:51:06;11.40;68.90
26505;DHT22;19493;48.042;7.584;2024-03-23T14:53:34;11.50;69.00
26505;DHT22;19493;48.042;7.584;2024-03-23T14:56:01;11.50;68.60
26505;DHT22;19493;48.042;7.584;2024-03-23T14:58:28;11.60;68.90
26505;DHT22;19493;48.042;7.584;2024-03-23T15:01:00;11.50;70.50
26505;DHT22;19493;48.042;7.584;2024-03-23T15:03:26;11.30;70.50
26505;DHT22;19493;48.042;7.584;2024-03-23T15:05:59;11.10;71.90
26505;DHT22;19493;48.042;7.584;2024-03-23T15:08:25;10.90;72.80
26505;DHT22;19493;48.042;7.584;2024-03-23T15:10:51;10.60;74.10
26505;DHT22;19493;48.042;7.584;2024-03-23T15:15:44;10.00;76.50
26505;DHT22;19493;48.042;7.584;2024-03-23T15:18:13;10.10;78.10
26505;DHT22;19493;48.042;7.584;2024-03-23T15:20:40;10.00;79.70
26505;DHT22;19493;48.042;7.584;2024-03-23T15:23:06;10.00;81.60
26505;DHT22;19493;48.042;7.584;2024-03-23T15:25:32;11.50;88.60
26505;DHT22;19493;48.042;7.584;2024-03-23T15:27:58;12.50;84.20
26505;DHT22;19493;48.042;7.584;2024-03-23T15:30:25;11.80;83.70
26505;DHT22;19493;48.042;7.584;2024-03-23T15:32:50;11.10;90.10
26505;DHT22;19493;48.042;7.584;2024-03-23T15:35:16;10.30;94.00
26505;DHT22;19493;48.042;7.584;2024-03-23T15:37:41;9.80;96.50
26505;DHT22;19493;48.042;7.584;2024-03-23T15:40:08;9.60;99.90
26505;DHT22;19493;48.042;7.584;2024-03-23T15:42:35;9.70;99.90
26505;DHT22;19493;48.042;7.584;2024-03-23T15:45:01;9.90;99.90
26505;DHT22;19493;48.042;7.584;2024-03-23T15:47:29;9.90;99.90
26505;DHT22;19493;48.042;7.584;2024-03-23T15:49:54;9.80;99.90
26505;DHT22;19493;48.042;7.584;2024-03-23T15:52:21;9.60;99.90
26505;DHT22;19493;48.042;7.584;2024-03-23T15:54:46;9.50;99.90
26505;DHT22;19493;48.042;7.584;2024-03-23T15:57:12;9.50;99.90
26505;DHT22;19493;48.042;7.584;2024-03-23T15:59:40;9.50;99.90
26505;DHT22;19493;48.042;7.584;2024-03-23T16:02:06;9.70;99.90
26505;DHT22;19493;48.042;7.584;2024-03-23T16:04:32;9.80;99.90
26505;DHT22;19493;48.042;7.584;2024-03-23T16:06:58;9.80;99.90
26505;DHT22;19493;48.042;7.584;2024-03-23T16:09:23;9.70;99.90
26505;DHT22;19493;48.042;7.584;2024-03-23T16:11:49;9.70;99.90
26505;DHT22;19493;48.042;7.584;2024-03-23T16:14:14;9.80;99.90
26505;DHT22;19493;48.042;7.584;2024-03-23T16:16:40;9.80;99.90
26505;DHT22;19493;48.042;7.584;2024-03-23T16:19:05;9.70;99.90
26505;DHT22;19493;48.042;7.584;2024-03-23T16:21:32;9.50;99.90
26505;DHT22;19493;48.042;7.584;2024-03-23T16:23:57;9.40;99.90
26505;DHT22;19493;48.042;7.584;2024-03-23T16:26:23;9.30;99.90
26505;DHT22;19493;48.042;7.584;2024-03-23T16:28:49;9.20;99.90
26505;DHT22;19493;48.042;7.584;2024-03-23T16:31:15;9.20;99.90
26505;DHT22;19493;48.042;7.584;2024-03-23T16:33:42;9.10;99.90
26505;DHT22;19493;48.042;7.584;2024-03-23T16:36:09;9.00;99.90
26505;DHT22;19493;48.042;7.584;2024-03-23T16:38:36;9.20;99.90
26505;DHT22;19493;48.042;7.584;2024-03-23T16:41:07;9.20;99.90
26505;DHT22;19493;48.042;7.584;2024-03-23T16:43:33;9.00;99.90
26505;DHT22;19493;48.042;7.584;2024-03-23T16:46:08;8.80;99.90
26505;DHT22;19493;48.042;7.584;2024-03-23T16:48:36;8.60;99.90
26505;DHT22;19493;48.042;7.584;2024-03-23T16:51:03;8.40;99.90
26505;DHT22;19493;48.042;7.584;2024-03-23T16:53:29;8.20;99.90
26505;DHT22;19493;48.042;7.584;2024-03-23T16:56:05;8.00;99.90
26505;DHT22;19493;48.042;7.584;2024-03-23T16:58:35;8.00;99.90
26505;DHT22;19493;48.042;7.584;2024-03-23T17:01:09;7.90;99.90
26505;DHT22;19493;48.042;7.584;2024-03-23T17:03:37;7.80;99.90
26505;DHT22;19493;48.042;7.584;2024-03-23T17:06:04;7.80;99.90
26505;DHT22;19493;48.042;7.584;2024-03-23T17:08:31;7.70;99.90
26505;DHT22;19493;48.042;7.584;2024-03-23T17:11:03;7.60;99.90